Aérodrome :
LOGIN :

S'inscrire | Disclaimer

   EN    FR    IT 

 










Légende :    VFR   VFR Marginal   IFR   IFR Intensif   IFR Très Intensif
Visi : 
Plafond : 
>= 8 km
>= 3000ft
5 à 8 km
1000 à 3000 ft
1500m à 5 km
500 à 1000 ft
800 à 1500m
200 à 500 ft
< 800m
< 200 ft
Symboles :   Orages  Brouillard  Fortes neiges  Fortes précipitations  Vent > 20 kt
SIGMETs :   Divers  Orages  Givrage  Turbulence  Onde Orograph.  Cendres Volcan.







- Altitude de l'aérodrome : 782 ft
- Code IATA : BGY


LIME - Orio al Serio International - Bergamo

DERNIER METAR :
  • 180320Z 26007KT 0600 R28/P1500N FG BKN003 04/04 Q1008 NOSIG

METARs EXPIRÉS :
  • 180250Z 24004KT 1000 R28/P1500N BR BKN003 05/04 Q1008 NOSIG
  • 180220Z 26003KT 1000 R28/P1500N BR BKN003 05/04 Q1008 NOSIG
  • 180150Z VRB01KT 1000 R28/P1500N BR BKN003 05/04 Q1009 NOSIG
  • 180120Z 23004KT 1000 R28/P1500N BR BKN003 05/05 Q1009 NOSIG
  • 180050Z 23005KT 1000 R28/P1500N BR BKN003 05/05 Q1009 NOSIG

TAF TAF LIME
Valide du 18 à 00h jusqu'au 19 à 00h UTC


172300Z 1800/1824 VRB05KT 1500 BR BKN010
TEMPO 1800/1806 0500 FG BKN005
BECMG 1806/1809 33010KT CAVOK
BECMG 1815/1818 VRB05KT
Pas de NOTAMs connus pour ce terrain.



MET'MAP, la Météo Aéronautique d'un coup d'oeil ! - Copyright ORBIFLY Décembre 2007 - Disclaimer

ORBIFLY MET'MAP TEAM :

Programmation & Développement : Alexandra Zaïnal
Conception & Développement : Baudouin d'Aumeries
Co-Programmation & Développement : Marc-Olivier Méhu
Soutien technique & logistique : Manuel Goepfert

Contact : metmap@orbifly.com




SOURCES & CREDITS :

   NOAA